Ramah Community, New Mexico
Current Conditions -  °F | °C
As of 7:53 PM on Friday 28 Nov 2014 (Local Time) from KGUP Reporting Station
Clear Clear  
Wind Chill: 32°   Ceiling: Unl
Heat Index: 36°   Visibility: 10mi
Dew Point:   Wind: 5mph
Humidity: 26%   Direction: 60°ENE
Pressure: 30.12"   Gusts: NA
Location:  35.0898°N, 108.763°W
Report Text: KGUP 290253Z AUTO 06004KT 10SM CLR 02/M16 A3012 RMK AO2 SLP227 T00221156 58002
Loading
Personal Weather Stations






























Interactive Weather Map New forecast layout! Learn more

10-Day Weather Forecast

Advertisements
Track Severe Weather on mobile